KMVN/MVN METAR and TAF weather

Enter ICAO airport designator
Station Type Date Time Source
KMVN METAR 2022/05/26 05:17 UTC NOAA

KMVN 260517Z AUTO 18011KT 10SM SCT025 BKN043 21/18 A2982 RMK AO2


Station Type Date Time Source
KMVN Decoded METAR 2022/05/26 05:17 UTC NOAA

Mount Vernon, Mount Vernon Airport, IL, United States (KMVN) 38-19N 088-52W
May 26, 2022 - 01:17 AM EDT / 2022.05.26 0517 UTC
Wind: from the S (180 degrees) at 13 MPH (11 KT):0
Visibility: 10 mile(s):0
Sky conditions: mostly cloudy
Temperature: 69 F (21 C)
Dew Point: 64 F (18 C)
Relative Humidity: 82%
Pressure (altimeter): 29.82 in. Hg (1009 hPa)
ob: KMVN 260517Z AUTO 18011KT 10SM SCT025 BKN043 21/18 A2982 RMK AO2
cycle: 5

Station Type Date Time Source
KMVN TAF 2022/05/26 03:18 UTC NOAA

TAF
AMD KMVN 260315Z 2603/2624 17012G20KT P6SM BKN045
FM260400 17009KT P6SM BKN024
FM260900 17010KT P6SM VCSH BKN013
FM261600 18012G19KT P6SM BKN030
FM262000 19012G20KT P6SM VCSH BKN040

Example: see airport list